Terminal Aerodrome Forecast
Issued by NWS Bismarck, ND

Home | Current Version | Previous Version | Graphics & Text | Print | Product List | Glossary On
Versions: 1 2 3 4 5 6 7 8 9 10 11 12 13 14 15 16 17 18 19 20 21 22 23 24 25
000
FTUS43 KBIS 272146 AAB
TAFBIS
TAF AMD
KBIS 272146Z 2722/2818 05006KT P6SM SCT035 BKN050
     FM280000 05006KT P6SM VCSH BKN050
     FM280400 07004KT P6SM -SHRA VCTS SCT050CB BKN090
     FM280700 07004KT P6SM BKN060=

USA.gov is the U.S. government's official web portal to all federal, state and local government web resources and services.